Time;durP1;ratioP1;P1;durP2;ratioP2;P2;SDS_P1;SDS_P2;PMS_P1;PMS_P2;Temp;Humidity;BMP_temperature;BMP_pressure;BME280_temperature;BME280_humidity;BME280_pressure;Samples;Min_cycle;Max_cycle;Signal;HPM_P1;HPM_P2
2022/01/02 00:01:08;;;;;;;13.07;6.88;;;11.50;99.90;;;;;;4994710;28;20120;-58
2022/01/02 00:03:39;;;;;;;16.20;7.50;;;11.40;99.90;;;;;;4995738;28;20478;-58
2022/01/02 00:06:08;;;;;;;15.80;7.53;;;11.40;99.90;;;;;;4995745;28;20042;-58
2022/01/02 00:08:41;;;;;;;13.48;7.15;;;11.40;99.90;;;;;;4995120;28;20571;-58
2022/01/02 00:11:11;;;;;;;15.80;7.00;;;11.30;99.90;;;;;;4977224;28;20510;-58
2022/01/02 00:13:45;;;;;;;17.77;7.93;;;11.30;99.90;;;;;;4976029;28;20038;-58
2022/01/02 00:16:15;;;;;;;15.93;7.30;;;11.30;99.90;;;;;;4992924;28;20042;-58
2022/01/02 00:18:49;;;;;;;14.93;7.25;;;11.30;99.90;;;;;;4995128;28;20045;-58
2022/01/02 00:21:16;;;;;;;;;;;11.30;99.90;;;;;;4995234;28;20041;-58
2022/01/02 00:24:02;;;;;;;13.82;7.25;;;11.30;99.90;;;;;;4995083;28;20360;-58
2022/01/02 00:26:43;;;;;;;11.95;6.50;;;11.30;99.90;;;;;;4995131;28;20042;-58
2022/01/02 00:29:10;;;;;;;14.75;7.28;;;11.20;99.90;;;;;;4994858;28;20042;-58
2022/01/02 00:31:36;;;;;;;16.08;7.40;;;11.20;99.90;;;;;;4995013;28;20046;-58
2022/01/02 00:34:05;;;;;;;18.30;7.65;;;11.20;99.90;;;;;;4994823;28;20042;-59
2022/01/02 00:36:31;;;;;;;15.52;7.68;;;11.20;99.90;;;;;;4958186;28;20043;-59
2022/01/02 00:38:57;;;;;;;13.27;7.35;;;11.20;99.90;;;;;;4974852;28;20462;-58
2022/01/02 00:41:26;;;;;;;13.88;7.20;;;11.20;99.90;;;;;;4980530;28;20069;-58
2022/01/02 00:44:07;;;;;;;12.05;7.25;;;11.20;99.90;;;;;;4995213;28;20042;-58
2022/01/02 00:46:39;;;;;;;13.35;7.53;;;11.20;99.90;;;;;;4994448;28;20054;-58
2022/01/02 00:49:05;;;;;;;12.32;7.05;;;11.20;99.90;;;;;;4993800;28;20286;-58
2022/01/02 00:51:43;;;;;;;19.25;7.88;;;11.20;99.90;;;;;;4994668;28;20046;-58
2022/01/02 00:54:18;;;;;;;14.68;7.68;;;11.20;99.90;;;;;;4978339;28;20049;-58
2022/01/02 00:56:45;;;;;;;15.90;7.80;;;11.20;99.90;;;;;;4990167;28;20059;-58
2022/01/02 00:59:29;;;;;;;17.45;8.00;;;11.20;99.90;;;;;;4993641;28;20123;-58
2022/01/02 01:02:06;;;;;;;19.45;7.93;;;11.20;99.90;;;;;;4994347;28;20074;-59
2022/01/02 01:04:33;;;;;;;18.35;8.93;;;11.20;99.90;;;;;;4974910;28;20046;-58
2022/01/02 01:07:04;;;;;;;18.52;9.07;;;11.20;99.90;;;;;;4974563;28;20051;-58
2022/01/02 01:09:31;;;;;;;16.25;8.48;;;11.20;99.90;;;;;;4993264;28;20038;-58
2022/01/02 01:12:01;;;;;;;19.50;8.65;;;11.20;99.90;;;;;;4975949;28;20061;-58
2022/01/02 01:14:29;;;;;;;19.80;9.27;;;11.20;99.90;;;;;;4974122;28;20050;-58
2022/01/02 01:16:55;;;;;;;16.52;8.25;;;11.40;99.90;;;;;;4973648;28;20031;-58
2022/01/02 01:19:22;;;;;;;19.02;8.98;;;11.10;99.90;;;;;;4974629;28;20487;-58
2022/01/02 01:21:49;;;;;;;17.98;9.40;;;11.10;99.90;;;;;;4974406;28;20450;-59
2022/01/02 01:24:15;;;;;;;25.60;9.52;;;11.10;99.90;;;;;;4985620;28;20049;-59
2022/01/02 01:26:41;;;;;;;18.80;9.63;;;11.10;99.90;;;;;;4994207;28;20042;-59
2022/01/02 01:29:07;;;;;;;17.80;9.43;;;11.10;99.90;;;;;;4993639;28;20165;-58
2022/01/02 01:31:32;;;;;;;25.73;8.95;;;11.10;99.90;;;;;;4994021;28;20501;-58
2022/01/02 01:33:58;;;;;;;17.23;8.93;;;11.10;99.90;;;;;;4993822;28;20030;-58
2022/01/02 01:36:24;;;;;;;17.42;8.65;;;11.10;99.90;;;;;;4976592;28;20450;-58
2022/01/02 01:38:50;;;;;;;20.63;8.63;;;11.10;99.90;;;;;;4993066;28;20066;-59
2022/01/02 01:41:27;;;;;;;21.67;9.05;;;11.10;99.90;;;;;;4993731;28;20046;-57
2022/01/02 01:44:06;;;;;;;21.45;9.23;;;11.10;99.90;;;;;;4993662;28;20042;-59
2022/01/02 01:46:35;;;;;;;19.30;8.27;;;11.10;99.90;;;;;;4992867;28;20043;-58
2022/01/02 01:49:12;;;;;;;18.63;8.68;;;11.10;99.90;;;;;;4992620;28;20042;-58
2022/01/02 01:51:38;;;;;;;19.60;8.50;;;11.20;99.90;;;;;;4992686;28;20030;-58
2022/01/02 01:54:03;;;;;;;19.92;9.18;;;11.20;99.90;;;;;;4993687;28;20049;-58
2022/01/02 01:56:30;;;;;;;16.17;8.32;;;11.20;99.90;;;;;;4975842;28;20044;-58
2022/01/02 01:58:56;;;;;;;19.73;8.65;;;11.20;99.90;;;;;;4993228;28;20049;-58
2022/01/02 02:01:22;;;;;;;20.88;8.77;;;11.20;99.90;;;;;;4975753;28;20042;-59
2022/01/02 02:03:48;;;;;;;22.08;9.35;;;11.20;99.90;;;;;;4993114;28;20413;-58
2022/01/02 02:06:14;;;;;;;19.50;8.23;;;11.20;99.90;;;;;;4993173;28;20042;-59
2022/01/02 02:08:40;;;;;;;19.30;8.98;;;11.20;99.90;;;;;;4992371;28;20049;-58
2022/01/02 02:11:05;;;;;;;19.35;8.27;;;11.20;99.90;;;;;;4992993;28;20057;-57
2022/01/02 02:13:33;;;;;;;18.05;8.05;;;11.30;99.90;;;;;;4993325;28;20049;-58
2022/01/02 02:16:00;;;;;;;17.92;8.10;;;11.30;99.90;;;;;;4993374;28;20066;-58
2022/01/02 02:18:26;;;;;;;16.83;7.90;;;11.40;99.90;;;;;;4993166;28;20074;-58
2022/01/02 02:20:51;;;;;;;20.23;8.00;;;11.30;99.90;;;;;;4992860;28;20505;-58
2022/01/02 02:23:17;;;;;;;18.75;7.82;;;11.20;99.90;;;;;;4980728;28;20038;-58
2022/01/02 02:25:43;;;;;;;16.50;8.07;;;11.20;99.90;;;;;;4974942;28;20050;-58
2022/01/02 02:28:10;;;;;;;19.48;7.68;;;11.30;99.90;;;;;;4973297;28;20039;-59
2022/01/02 02:30:39;;;;;;;20.17;8.65;;;11.30;99.90;;;;;;4972965;28;20077;-58
2022/01/02 02:33:06;;;;;;;17.40;7.90;;;11.30;99.90;;;;;;4983051;28;20035;-58
2022/01/02 02:35:34;;;;;;;18.35;8.02;;;11.20;99.90;;;;;;4974412;28;20038;-58
2022/01/02 02:38:00;;;;;;;19.27;8.07;;;11.20;99.90;;;;;;4990843;28;20046;-58
2022/01/02 02:40:29;;;;;;;19.98;8.38;;;11.20;99.90;;;;;;4976500;28;20038;-58
2022/01/02 02:51:24;;;;;;;21.00;8.70;;;11.20;99.90;;;;;;4977452;28;20050;-59
2022/01/02 02:53:53;;;;;;;22.67;8.40;;;11.20;99.90;;;;;;4973000;28;20039;-58
2022/01/02 02:56:25;;;;;;;19.88;8.10;;;11.20;99.90;;;;;;4972886;28;20038;-58
2022/01/02 02:58:55;;;;;;;19.63;8.07;;;11.20;99.90;;;;;;4972927;28;20041;-58
2022/01/02 03:01:22;;;;;;;19.20;7.90;;;11.20;99.90;;;;;;4972440;28;20046;-59
2022/01/02 03:03:49;;;;;;;20.08;7.95;;;11.20;99.90;;;;;;4972657;28;20064;-58
2022/01/02 03:06:16;;;;;;;17.13;6.75;;;11.20;99.90;;;;;;4955338;28;20046;-57
2022/01/02 03:08:44;;;;;;;15.45;7.32;;;11.20;99.90;;;;;;4972874;28;20039;-58
2022/01/02 03:11:15;;;;;;;18.02;7.35;;;11.20;99.90;;;;;;4954882;28;20047;-58
2022/01/02 03:13:42;;;;;;;19.73;7.35;;;11.30;99.90;;;;;;4988468;28;20046;-58
2022/01/02 03:16:08;;;;;;;21.70;7.68;;;11.30;99.90;;;;;;4990246;28;20125;-59
2022/01/02 03:18:34;;;;;;;14.35;6.90;;;11.20;99.90;;;;;;4982428;28;20141;-59
2022/01/02 03:21:00;;;;;;;17.27;6.72;;;11.30;99.90;;;;;;4972937;28;20046;-59
2022/01/02 03:23:26;;;;;;;17.23;7.13;;;11.30;99.90;;;;;;4973066;28;20395;-58
2022/01/02 03:25:52;;;;;;;20.45;7.47;;;11.30;99.90;;;;;;4972986;28;20074;-58
2022/01/02 03:28:17;;;;;;;22.55;7.15;;;11.40;99.90;;;;;;4972896;28;20129;-58
2022/01/02 03:30:43;;;;;;;22.40;6.95;;;11.40;99.90;;;;;;4971482;28;20031;-58
2022/01/02 03:33:09;;;;;;;17.98;6.70;;;11.40;99.90;;;;;;4971552;28;20050;-59
2022/01/02 03:35:35;;;;;;;17.27;7.00;;;11.40;99.90;;;;;;4972692;28;20085;-58
2022/01/02 03:38:02;;;;;;;16.67;6.80;;;11.40;99.90;;;;;;4971805;28;20054;-59
2022/01/02 03:40:28;;;;;;;19.10;6.82;;;11.40;99.90;;;;;;4972557;28;20398;-58
2022/01/02 03:42:54;;;;;;;16.33;7.18;;;11.40;99.90;;;;;;4972286;28;20121;-58
2022/01/02 03:45:20;;;;;;;22.63;6.85;;;11.40;99.90;;;;;;4953942;28;20045;-58
2022/01/02 03:47:46;;;;;;;18.48;6.40;;;11.50;99.90;;;;;;4971927;28;20397;-58
2022/01/02 03:50:11;;;;;;;23.13;6.70;;;11.40;99.90;;;;;;4971682;28;20042;-58
2022/01/02 03:52:37;;;;;;;16.30;6.65;;;11.40;99.90;;;;;;4971721;28;20063;-58
2022/01/02 03:55:04;;;;;;;17.27;6.05;;;11.40;99.90;;;;;;4971892;28;20039;-59
2022/01/02 03:57:29;;;;;;;18.45;6.30;;;11.40;99.90;;;;;;4972171;28;20061;-59
2022/01/02 03:59:55;;;;;;;16.40;6.47;;;11.50;99.90;;;;;;4972232;28;20046;-58
2022/01/02 04:02:21;;;;;;;21.75;6.88;;;11.50;99.90;;;;;;4973605;28;20179;-58
2022/01/02 04:04:46;;;;;;;20.98;6.20;;;11.50;99.90;;;;;;4972182;28;20049;-58
2022/01/02 04:07:12;;;;;;;20.52;6.15;;;11.40;99.90;;;;;;4971396;28;20049;-58
2022/01/02 04:09:38;;;;;;;19.58;6.00;;;11.40;99.90;;;;;;4972055;28;20034;-58
2022/01/02 04:12:04;;;;;;;20.02;5.95;;;11.40;99.90;;;;;;4971721;28;20066;-58
2022/01/02 04:14:30;;;;;;;18.17;6.45;;;11.50;99.90;;;;;;4971935;28;20039;-58
2022/01/02 04:16:55;;;;;;;14.93;5.90;;;11.50;99.90;;;;;;4971644;28;20045;-58
2022/01/02 04:19:21;;;;;;;20.92;6.30;;;11.50;99.90;;;;;;4972105;28;20421;-58
2022/01/02 04:21:47;;;;;;;16.65;6.60;;;11.50;99.90;;;;;;4971822;28;20043;-58
2022/01/02 04:24:12;;;;;;;14.88;5.68;;;11.50;99.90;;;;;;4981600;28;20034;-59
2022/01/02 04:26:38;;;;;;;19.40;6.20;;;11.60;99.90;;;;;;4973644;28;20509;-59
2022/01/02 04:29:05;;;;;;;20.48;6.10;;;11.60;99.90;;;;;;4991372;28;20566;-58
2022/01/02 04:31:31;;;;;;;17.90;5.63;;;11.60;99.90;;;;;;4973728;28;20499;-58
2022/01/02 04:33:57;;;;;;;18.88;6.22;;;11.60;99.90;;;;;;4991497;28;20496;-59
2022/01/02 04:36:23;;;;;;;14.73;4.97;;;11.60;99.90;;;;;;4991084;28;20042;-58
2022/01/02 04:38:48;;;;;;;19.83;5.40;;;11.60;99.90;;;;;;4990526;28;20041;-58
2022/01/02 04:41:14;;;;;;;16.25;4.78;;;11.80;99.90;;;;;;4991174;28;20043;-58
2022/01/02 04:43:40;;;;;;;15.88;5.10;;;11.70;99.90;;;;;;4991399;28;20043;-58
2022/01/02 04:46:06;;;;;;;18.85;4.80;;;11.80;99.90;;;;;;4993231;28;20034;-58
2022/01/02 04:48:32;;;;;;;20.92;4.35;;;11.70;99.90;;;;;;4975731;28;20063;-58
2022/01/02 04:50:58;;;;;;;16.70;5.10;;;11.70;99.90;;;;;;4980311;28;20414;-58
2022/01/02 04:53:24;;;;;;;19.35;5.22;;;11.70;99.90;;;;;;4976003;28;20039;-58
2022/01/02 04:55:50;;;;;;;18.70;4.75;;;11.80;99.90;;;;;;4975379;28;20086;-58
2022/01/02 04:58:16;;;;;;;17.25;5.00;;;11.80;99.90;;;;;;4976087;28;20057;-58
2022/01/02 05:00:42;;;;;;;17.23;4.70;;;11.80;99.90;;;;;;4975169;28;20119;-58
2022/01/02 05:03:08;;;;;;;12.98;4.53;;;11.80;99.90;;;;;;4975070;28;20039;-58
2022/01/02 05:05:34;;;;;;;17.52;5.25;;;11.90;99.90;;;;;;4992795;28;20057;-58
2022/01/02 05:07:59;;;;;;;17.70;4.63;;;11.90;99.90;;;;;;4993868;28;20045;-58
2022/01/02 05:10:25;;;;;;;15.65;4.43;;;11.90;99.90;;;;;;4994364;28;20081;-58
2022/01/02 05:12:51;;;;;;;13.95;4.35;;;11.90;99.90;;;;;;4988965;28;20062;-58
2022/01/02 05:15:17;;;;;;;11.30;4.57;;;11.90;99.90;;;;;;4974673;28;20035;-59
2022/01/02 05:17:45;;;;;;;16.40;4.88;;;11.90;99.90;;;;;;4974486;28;20046;-58
2022/01/02 05:20:11;;;;;;;16.70;5.10;;;12.00;99.90;;;;;;4974785;28;20490;-59
2022/01/02 05:22:37;;;;;;;14.95;4.32;;;12.00;99.90;;;;;;4974922;28;20167;-58
2022/01/02 05:25:04;;;;;;;13.13;4.28;;;12.00;99.90;;;;;;4974631;28;20073;-58
2022/01/02 05:27:30;;;;;;;15.40;4.13;;;12.00;99.90;;;;;;4992610;28;20105;-59
2022/01/02 05:29:56;;;;;;;14.98;4.13;;;12.00;99.90;;;;;;4993584;28;20026;-58
2022/01/02 05:32:22;;;;;;;10.82;4.05;;;12.10;99.90;;;;;;4993914;28;20122;-59
2022/01/02 05:34:48;;;;;;;13.10;4.07;;;12.10;99.90;;;;;;4976319;28;20113;-58
2022/01/02 05:37:14;;;;;;;15.10;3.78;;;12.10;99.90;;;;;;4993401;28;20043;-59
2022/01/02 05:39:39;;;;;;;11.00;3.95;;;12.10;99.90;;;;;;4993642;28;20085;-58
2022/01/02 05:42:06;;;;;;;15.13;4.05;;;12.10;99.90;;;;;;4975723;28;20045;-59
2022/01/02 05:44:31;;;;;;;11.05;3.55;;;12.20;99.90;;;;;;4993881;28;20050;-58
2022/01/02 05:46:58;;;;;;;10.25;3.50;;;12.20;99.90;;;;;;4992906;28;20050;-58
2022/01/02 05:49:23;;;;;;;12.20;3.58;;;12.20;99.90;;;;;;4993536;28;20039;-58
2022/01/02 05:51:49;;;;;;;14.70;3.95;;;12.20;99.90;;;;;;4993191;28;20053;-59
2022/01/02 05:54:15;;;;;;;14.20;4.13;;;12.20;99.90;;;;;;4993236;28;20401;-58
2022/01/02 05:56:40;;;;;;;10.75;3.70;;;12.20;99.90;;;;;;4992627;28;20125;-59
2022/01/02 05:59:06;;;;;;;13.27;3.58;;;12.20;99.90;;;;;;4975156;28;20044;-58
2022/01/02 06:01:32;;;;;;;11.68;3.22;;;12.20;99.90;;;;;;4993277;28;20045;-59
2022/01/02 06:03:58;;;;;;;12.88;3.65;;;12.20;99.90;;;;;;4993512;28;20085;-58
2022/01/02 06:06:23;;;;;;;16.67;3.78;;;12.20;99.90;;;;;;4993420;28;20482;-59
2022/01/02 06:08:49;;;;;;;11.98;3.13;;;12.20;99.90;;;;;;4992741;28;20097;-58
2022/01/02 06:11:15;;;;;;;10.30;4.20;;;12.20;99.90;;;;;;4993078;28;20045;-58
2022/01/02 06:13:40;;;;;;;8.63;3.28;;;12.20;99.90;;;;;;4992593;28;20042;-59
2022/01/02 06:16:07;;;;;;;9.15;3.00;;;12.20;99.90;;;;;;4993051;28;20097;-58
2022/01/02 06:18:34;;;;;;;10.65;3.45;;;12.20;99.90;;;;;;4992559;28;20082;-58
2022/01/02 06:20:59;;;;;;;13.93;3.53;;;12.20;99.90;;;;;;4992929;28;20033;-57
2022/01/02 06:23:25;;;;;;;12.50;3.38;;;12.20;99.90;;;;;;4992819;28;20092;-57
2022/01/02 06:25:51;;;;;;;10.52;3.40;;;12.20;99.90;;;;;;4992600;28;20042;-56
2022/01/02 06:28:17;;;;;;;10.98;3.30;;;12.20;99.90;;;;;;4991721;28;20054;-57
2022/01/02 06:30:42;;;;;;;9.18;3.50;;;12.30;99.90;;;;;;4993025;28;20039;-57
2022/01/02 06:33:08;;;;;;;12.90;3.60;;;12.20;99.90;;;;;;4992890;28;20038;-57
2022/01/02 06:35:34;;;;;;;11.65;3.53;;;12.20;99.90;;;;;;4993075;28;20038;-57
2022/01/02 06:38:16;;;;;;;14.45;3.72;;;12.20;99.90;;;;;;4991304;28;20042;-58
2022/01/02 06:40:42;;;;;;;11.50;3.33;;;12.20;99.90;;;;;;4973415;28;20089;-58
2022/01/02 06:43:08;;;;;;;11.40;3.72;;;12.10;99.90;;;;;;4973572;28;20645;-58
2022/01/02 06:45:34;;;;;;;14.77;3.65;;;12.20;99.90;;;;;;4973086;28;20130;-57
2022/01/02 06:48:01;;;;;;;10.23;3.72;;;12.20;99.90;;;;;;4972896;28;20046;-58
2022/01/02 06:50:26;;;;;;;12.20;4.32;;;12.20;99.90;;;;;;4991232;28;20069;-58
2022/01/02 06:52:52;;;;;;;9.48;3.75;;;12.10;99.90;;;;;;4975371;28;20083;-58
2022/01/02 06:55:18;;;;;;;13.50;4.05;;;12.10;99.90;;;;;;4974030;28;20035;-58
2022/01/02 06:57:43;;;;;;;12.35;4.13;;;12.10;99.90;;;;;;4991858;28;20486;-57
2022/01/02 07:00:09;;;;;;;11.43;3.83;;;12.10;99.90;;;;;;4992261;28;20045;-58
2022/01/02 07:02:35;;;;;;;13.82;4.05;;;12.10;99.90;;;;;;4992428;28;20088;-58
2022/01/02 07:05:00;;;;;;;10.07;3.70;;;12.10;99.90;;;;;;4992370;28;20054;-58
2022/01/02 07:07:26;;;;;;;12.25;3.83;;;12.00;99.90;;;;;;4991481;28;20046;-58
2022/01/02 07:09:52;;;;;;;13.52;3.58;;;12.00;99.90;;;;;;4992153;28;20065;-58
2022/01/02 07:12:17;;;;;;;9.18;3.67;;;12.00;99.90;;;;;;4991663;28;20062;-58
2022/01/02 07:14:43;;;;;;;12.38;3.67;;;12.00;99.90;;;;;;4990940;28;20034;-58
2022/01/02 07:17:09;;;;;;;10.75;3.95;;;11.90;99.90;;;;;;4991989;28;20038;-57
2022/01/02 07:19:35;;;;;;;10.77;3.08;;;11.90;99.90;;;;;;4992103;28;20417;-58
2022/01/02 07:22:00;;;;;;;10.48;3.60;;;11.90;99.90;;;;;;4991779;28;20034;-58
2022/01/02 07:24:26;;;;;;;10.68;3.38;;;11.90;99.90;;;;;;4991594;28;20113;-58
2022/01/02 07:26:52;;;;;;;10.60;3.13;;;12.00;99.90;;;;;;4991780;28;20040;-58
2022/01/02 07:29:19;;;;;;;11.98;3.72;;;12.00;99.90;;;;;;4991625;28;20042;-58
2022/01/02 07:31:45;;;;;;;11.02;3.97;;;12.00;99.90;;;;;;4991554;28;20042;-58
2022/01/02 07:34:11;;;;;;;8.75;3.83;;;12.00;99.90;;;;;;4992049;28;20034;-58
2022/01/02 07:36:39;;;;;;;10.85;3.63;;;12.00;99.90;;;;;;4991890;28;20497;-58
2022/01/02 07:39:06;;;;;;;9.73;3.28;;;11.90;99.90;;;;;;4991541;28;20046;-57
2022/01/02 07:41:32;;;;;;;8.85;3.90;;;11.90;99.90;;;;;;4991621;28;20104;-58
2022/01/02 07:43:58;;;;;;;10.85;3.88;;;11.90;99.90;;;;;;4991454;28;20074;-58
2022/01/02 07:46:24;;;;;;;8.65;3.53;;;11.90;99.90;;;;;;4991241;28;20065;-58
2022/01/02 07:48:52;;;;;;;9.70;3.95;;;11.80;99.90;;;;;;4991029;28;20479;-57
2022/01/02 07:51:17;;;;;;;13.32;4.35;;;11.80;99.90;;;;;;4989674;28;20039;-57
2022/01/02 07:53:43;;;;;;;10.80;3.90;;;11.70;99.90;;;;;;4991347;28;20042;-58
2022/01/02 07:56:10;;;;;;;11.07;3.92;;;11.60;99.90;;;;;;4991035;28;20480;-57
2022/01/02 07:58:35;;;;;;;11.50;3.72;;;11.80;99.90;;;;;;4991452;28;20081;-58
2022/01/02 08:01:01;;;;;;;10.88;3.90;;;11.80;99.90;;;;;;4991744;28;20469;-57
2022/01/02 08:03:27;;;;;;;10.60;3.60;;;11.80;99.90;;;;;;4991194;28;20422;-58
2022/01/02 08:05:52;;;;;;;12.57;4.57;;;11.80;99.90;;;;;;4991111;28;20045;-57
2022/01/02 08:08:18;;;;;;;9.55;3.38;;;11.80;99.90;;;;;;4972698;28;20055;-57
2022/01/02 08:10:44;;;;;;;10.73;3.70;;;11.80;99.90;;;;;;4991120;28;20042;-58
2022/01/02 08:13:09;;;;;;;9.75;3.58;;;11.80;99.90;;;;;;4991183;28;20104;-58
2022/01/02 08:15:35;;;;;;;8.68;3.72;;;11.80;99.90;;;;;;4991331;28;20034;-58
2022/01/02 08:18:01;;;;;;;10.25;3.60;;;11.80;99.90;;;;;;4990432;28;20054;-57
2022/01/02 08:20:27;;;;;;;8.27;3.92;;;11.80;99.90;;;;;;4993526;28;20177;-58
2022/01/02 08:22:56;;;;;;;11.18;3.70;;;11.70;99.90;;;;;;4984005;28;20081;-58
2022/01/02 08:25:22;;;;;;;12.25;4.47;;;11.70;99.90;;;;;;4981194;28;20046;-58
2022/01/02 08:27:47;;;;;;;10.52;4.30;;;11.60;99.90;;;;;;4979410;28;20511;-58
2022/01/02 08:30:13;;;;;;;11.82;4.32;;;11.60;99.90;;;;;;4983461;28;20564;-58
2022/01/02 08:32:39;;;;;;;10.68;4.40;;;11.50;99.90;;;;;;4981611;28;20031;-57
2022/01/02 08:35:06;;;;;;;10.50;4.18;;;11.50;99.90;;;;;;4978008;28;20505;-58
2022/01/02 08:37:32;;;;;;;8.93;3.63;;;11.50;99.90;;;;;;4976829;28;20073;-57
2022/01/02 08:39:58;;;;;;;10.18;3.83;;;11.60;99.90;;;;;;4980232;28;20038;-57
2022/01/02 08:42:23;;;;;;;8.15;3.58;;;11.60;99.90;;;;;;4980565;28;20030;-57
2022/01/02 08:44:49;;;;;;;10.07;3.53;;;11.60;99.90;;;;;;4980914;28;20038;-58
2022/01/02 08:47:15;;;;;;;11.75;3.80;;;11.70;99.90;;;;;;4978553;28;20037;-58
2022/01/02 08:49:42;;;;;;;9.00;3.50;;;11.70;99.90;;;;;;4979221;28;20093;-58
2022/01/02 08:52:07;;;;;;;10.70;3.60;;;11.80;99.90;;;;;;4979456;28;20054;-57
2022/01/02 08:54:34;;;;;;;14.70;6.07;;;11.80;99.90;;;;;;4978119;28;20034;-58
2022/01/02 08:57:02;;;;;;;9.60;4.18;;;11.80;99.90;;;;;;4979616;28;20114;-58
2022/01/02 08:59:28;;;;;;;10.25;3.88;;;11.80;99.90;;;;;;4980583;28;20035;-58
2022/01/02 09:01:54;;;;;;;9.57;3.78;;;11.90;99.90;;;;;;4979150;28;20520;-58
2022/01/02 09:04:20;;;;;;;8.00;3.80;;;11.90;99.90;;;;;;4977734;28;20035;-58
2022/01/02 09:06:46;;;;;;;8.60;3.38;;;12.00;99.90;;;;;;4976223;28;20041;-57
2022/01/02 09:09:12;;;;;;;8.32;3.45;;;12.00;99.90;;;;;;4978090;28;20061;-57
2022/01/02 09:11:37;;;;;;;8.98;3.47;;;12.00;99.90;;;;;;4977447;28;20053;-58
2022/01/02 09:14:03;;;;;;;9.73;3.67;;;12.00;99.90;;;;;;4976912;28;20120;-58
2022/01/02 09:16:30;;;;;;;6.53;3.70;;;12.00;99.90;;;;;;4978360;28;20038;-56
2022/01/02 09:18:56;;;;;;;8.77;3.70;;;12.10;99.90;;;;;;4977430;28;20042;-57
2022/01/02 09:21:21;;;;;;;16.42;4.43;;;12.00;99.90;;;;;;4978848;28;20605;-58
2022/01/02 09:23:47;;;;;;;9.75;3.78;;;12.00;99.90;;;;;;4979442;28;20046;-58
2022/01/02 09:26:13;;;;;;;12.07;4.13;;;12.00;99.90;;;;;;4977157;28;20049;-58
2022/01/02 09:28:39;;;;;;;8.57;3.65;;;12.00;99.90;;;;;;4978306;28;21480;-57
2022/01/02 09:31:05;;;;;;;10.18;4.15;;;12.00;99.90;;;;;;4976059;28;20043;-58
2022/01/02 09:33:31;;;;;;;9.73;4.22;;;12.00;99.90;;;;;;4975942;28;20038;-57
2022/01/02 09:35:56;;;;;;;9.27;3.97;;;12.00;99.90;;;;;;4978591;28;20042;-57
2022/01/02 09:38:22;;;;;;;11.23;4.55;;;12.10;99.90;;;;;;4972876;28;20474;-57
2022/01/02 09:40:48;;;;;;;9.43;4.05;;;12.00;99.90;;;;;;4977650;28;20038;-58
2022/01/02 09:43:16;;;;;;;10.05;4.30;;;12.00;99.90;;;;;;4976724;28;20046;-57
2022/01/02 09:45:45;;;;;;;11.55;4.47;;;12.00;99.90;;;;;;4975487;28;20030;-58
2022/01/02 09:48:11;;;;;;;12.27;4.63;;;12.00;99.90;;;;;;4976867;28;20039;-57
2022/01/02 09:50:39;;;;;;;15.70;4.47;;;12.00;99.90;;;;;;4977045;28;20117;-58
2022/01/02 09:53:06;;;;;;;9.55;4.53;;;12.00;99.90;;;;;;4975769;28;20058;-58
2022/01/02 09:55:32;;;;;;;10.10;4.35;;;12.00;99.90;;;;;;4977502;28;20121;-58
2022/01/02 09:58:03;;;;;;;9.82;4.50;;;12.00;99.90;;;;;;4977162;28;20049;-58
2022/01/02 10:00:29;;;;;;;9.88;4.40;;;12.00;99.90;;;;;;4975995;28;20614;-58
2022/01/02 10:03:09;;;;;;;12.10;4.30;;;12.00;99.90;;;;;;4978456;28;20046;-58
2022/01/02 10:05:54;;;;;;;9.82;4.63;;;12.00;99.90;;;;;;4979428;28;20038;-58
2022/01/02 10:08:21;;;;;;;12.40;4.60;;;12.00;99.90;;;;;;4964257;28;20057;-58
2022/01/02 10:10:47;;;;;;;9.07;4.22;;;12.00;99.90;;;;;;4976899;28;20565;-57
2022/01/02 10:13:13;;;;;;;11.95;4.30;;;12.00;99.90;;;;;;4976372;28;20146;-58
2022/01/02 10:15:38;;;;;;;11.82;4.45;;;12.00;99.90;;;;;;4987465;28;20042;-58
2022/01/02 10:18:11;;;;;;;8.18;3.90;;;12.00;99.90;;;;;;4969638;28;20038;-58
2022/01/02 10:20:42;;;;;;;8.95;4.47;;;12.10;99.90;;;;;;4987780;28;20053;-58
2022/01/02 10:23:23;;;;;;;9.65;4.10;;;12.10;99.90;;;;;;4975975;28;20042;-58
2022/01/02 10:25:56;;;;;;;10.95;4.45;;;12.10;99.90;;;;;;4992793;28;20089;-58
2022/01/02 10:28:29;;;;;;;9.02;3.70;;;12.10;99.90;;;;;;4992759;28;20050;-57
2022/01/02 10:30:56;;;;;;;13.75;4.68;;;12.10;99.90;;;;;;4975099;28;20042;-58
2022/01/02 10:33:22;;;;;;;10.63;4.90;;;12.10;99.90;;;;;;4993067;28;20398;-57
2022/01/02 10:35:56;;;;;;;10.50;4.65;;;12.10;99.90;;;;;;4992328;28;20049;-58
2022/01/02 10:38:22;;;;;;;;;;;12.10;99.90;;;;;;4993058;28;20042;-58
2022/01/02 10:40:48;;;;;;;11.88;4.68;;;12.10;99.90;;;;;;4992967;28;19918;-58
2022/01/02 10:43:24;;;;;;;10.23;4.68;;;12.10;99.90;;;;;;4992140;28;20112;-58
2022/01/02 10:45:50;;;;;;;9.00;4.53;;;12.10;99.90;;;;;;4992624;28;20081;-58
2022/01/02 10:48:29;;;;;;;12.38;4.82;;;12.10;99.90;;;;;;4992662;28;20138;-58
2022/01/02 10:51:14;;;;;;;11.50;4.65;;;12.10;99.90;;;;;;4992394;28;20038;-58
2022/01/02 10:53:57;;;;;;;12.63;5.22;;;12.10;99.90;;;;;;4992615;28;20035;-58
2022/01/02 10:56:25;;;;;;;13.20;5.07;;;12.00;99.90;;;;;;4992376;28;20035;-58
2022/01/02 10:58:51;;;;;;;14.60;5.07;;;12.00;99.90;;;;;;4992250;28;20387;-58
2022/01/02 11:01:17;;;;;;;11.55;5.13;;;12.00;99.90;;;;;;4992245;28;20053;-58
2022/01/02 11:03:49;;;;;;;12.80;5.32;;;12.00;99.90;;;;;;4992818;28;20482;-58
2022/01/02 11:06:30;;;;;;;16.77;5.63;;;12.00;99.90;;;;;;4983998;28;20046;-57
2022/01/02 11:08:58;;;;;;;14.40;5.65;;;12.00;99.90;;;;;;4972264;28;20038;-58
2022/01/02 11:11:24;;;;;;;12.27;4.90;;;12.00;99.90;;;;;;4991046;28;20034;-58
2022/01/02 11:13:50;;;;;;;11.50;5.00;;;12.00;99.90;;;;;;4991612;28;20477;-58
2022/01/02 11:16:16;;;;;;;12.90;5.50;;;12.00;99.90;;;;;;4992284;28;20170;-58
2022/01/02 11:18:42;;;;;;;14.82;5.32;;;12.00;99.90;;;;;;4974594;28;20042;-58
2022/01/02 11:21:10;;;;;;;12.38;5.25;;;12.00;99.90;;;;;;4991757;28;20038;-58
2022/01/02 11:24:04;;;;;;;11.88;5.00;;;12.00;99.90;;;;;;4992237;28;20038;-57
2022/01/02 11:26:40;;;;;;;13.17;4.83;;;12.00;99.90;;;;;;4992291;28;20045;-58
2022/01/02 11:29:06;;;;;;;11.07;4.93;;;12.00;99.90;;;;;;4991764;28;20049;-58
2022/01/02 11:31:34;;;;;;;12.93;5.00;;;12.10;99.90;;;;;;4991778;28;20042;-58
2022/01/02 11:34:01;;;;;;;12.10;4.53;;;12.10;99.90;;;;;;4991986;28;20047;-58
2022/01/02 11:36:33;;;;;;;9.27;4.13;;;12.10;99.90;;;;;;4991749;28;20113;-58
2022/01/02 11:39:07;;;;;;;10.73;3.67;;;12.10;99.90;;;;;;4991322;28;20093;-57
2022/01/02 11:41:44;;;;;;;11.85;4.72;;;12.10;99.90;;;;;;4991976;28;20077;-58
2022/01/02 11:44:15;;;;;;;11.90;4.40;;;12.10;99.90;;;;;;4956024;28;20050;-57
2022/01/02 11:46:58;;;;;;;11.13;3.80;;;12.10;99.90;;;;;;4987860;28;20069;-58
2022/01/02 11:49:38;;;;;;;11.85;4.05;;;12.10;99.90;;;;;;4989455;28;20078;-57
2022/01/02 11:52:27;;;;;;;15.32;4.22;;;12.10;99.90;;;;;;4990976;28;20049;-58
2022/01/02 11:54:55;;;;;;;10.57;4.40;;;12.10;99.90;;;;;;4990415;28;20137;-57
2022/01/02 11:57:25;;;;;;;13.48;3.40;;;12.10;99.90;;;;;;4991237;28;20049;-57
2022/01/02 11:59:52;;;;;;;13.70;4.00;;;12.10;99.90;;;;;;4989843;28;20076;-58
2022/01/02 12:02:26;;;;;;;12.10;3.70;;;12.10;99.90;;;;;;4990858;28;20394;-58
2022/01/02 12:07:33;;;;;;;10.60;3.17;;;12.20;99.90;;;;;;4990995;28;20410;-58
2022/01/02 12:10:14;;;;;;;16.10;3.38;;;12.20;99.90;;;;;;4990711;28;20390;-57
2022/01/02 12:13:10;;;;;;;10.43;3.40;;;12.20;99.90;;;;;;4990703;28;20076;-57
2022/01/02 12:15:38;;;;;;;11.98;2.92;;;12.20;99.90;;;;;;4989082;28;20125;-57
2022/01/02 12:18:17;;;;;;;8.63;2.70;;;12.20;99.90;;;;;;4990646;28;20101;-57
2022/01/02 12:20:52;;;;;;;14.93;2.80;;;12.20;99.90;;;;;;4990615;28;20042;-58
2022/01/02 12:23:29;;;;;;;13.90;3.08;;;12.20;99.90;;;;;;4989549;28;20034;-58
2022/01/02 12:26:22;;;;;;;13.20;2.80;;;12.20;99.90;;;;;;4989245;28;20053;-57
2022/01/02 12:28:58;;;;;;;18.02;3.08;;;12.30;99.90;;;;;;4990380;28;20125;-57
2022/01/02 12:31:43;;;;;;;11.82;2.40;;;12.30;99.90;;;;;;4990820;28;20049;-58
2022/01/02 12:34:17;;;;;;;8.50;2.22;;;12.40;99.90;;;;;;4987966;28;20035;-58
2022/01/02 12:36:45;;;;;;;14.80;2.55;;;12.30;99.90;;;;;;4989114;28;20042;-58
2022/01/02 12:39:13;;;;;;;11.85;2.65;;;12.20;99.90;;;;;;4988370;28;20386;-58
2022/01/02 12:41:41;;;;;;;11.63;2.72;;;12.20;99.90;;;;;;4973741;28;20046;-58
2022/01/02 12:44:15;;;;;;;13.23;3.05;;;12.20;99.90;;;;;;4975098;28;20046;-58
2022/01/02 12:46:48;;;;;;;14.63;2.22;;;12.40;99.90;;;;;;4976722;28;20534;-58
2022/01/02 12:49:16;;;;;;;16.67;2.75;;;12.50;99.90;;;;;;4971123;28;20034;-58
2022/01/02 12:51:50;;;;;;;12.50;2.72;;;12.60;99.90;;;;;;4990102;28;20561;-58
2022/01/02 12:54:18;;;;;;;12.80;2.30;;;12.60;99.90;;;;;;4990834;28;20038;-58